Time;durP1;ratioP1;P1;durP2;ratioP2;P2;SDS_P1;SDS_P2;PMS_P1;PMS_P2;Temp;Humidity;BMP_temperature;BMP_pressure;BME280_temperature;BME280_humidity;BME280_pressure;Samples;Min_cycle;Max_cycle;Signal;HPM_P1;HPM_P2
2023/06/27 00:01:20;;;;;;;3.13;2.20;;;;;;;;;;5007846;28;20276;-74
2023/06/27 00:03:45;;;;;;;2.57;2.10;;;;;;;;;;5007933;28;20228;-75
2023/06/27 00:06:19;;;;;;;3.30;2.03;;;;;;;;;;5002295;28;20190;-75
2023/06/27 00:08:45;;;;;;;4.10;2.30;;;;;;;;;;5012309;28;20205;-74
2023/06/27 00:11:10;;;;;;;4.60;2.40;;;;;;;;;;5013922;28;20178;-74
2023/06/27 00:13:40;;;;;;;3.43;2.03;;;;;;;;;;5012708;28;20319;-74
2023/06/27 00:16:06;;;;;;;3.17;2.23;;;;;;;;;;5006207;28;20184;-74
2023/06/27 00:18:34;;;;;;;4.27;2.90;;;;;;;;;;5011859;28;20194;-75
2023/06/27 00:20:59;;;;;;;2.53;2.20;;;;;;;;;;5011361;28;20191;-74
2023/06/27 00:23:32;;;;;;;3.57;2.27;;;;;;;;;;5014400;28;20196;-74
2023/06/27 00:25:58;;;;;;;4.70;2.63;;;;;;;;;;5008408;28;20234;-74
2023/06/27 00:28:23;;;;;;;2.50;2.13;;;;;;;;;;5006741;28;20259;-74
2023/06/27 00:30:48;;;;;;;4.23;2.30;;;;;;;;;;5009897;28;20183;-74
2023/06/27 00:33:13;;;;;;;6.17;2.90;;;;;;;;;;5006453;28;20275;-74
2023/06/27 00:35:38;;;;;;;3.93;2.47;;;;;;;;;;5013030;28;20186;-74
2023/06/27 00:38:03;;;;;;;4.10;2.97;;;;;;;;;;5013880;28;20177;-74
2023/06/27 00:40:29;;;;;;;5.63;2.57;;;;;;;;;;5008839;28;20184;-74
2023/06/27 00:42:54;;;;;;;3.50;2.37;;;;;;;;;;5007222;28;20179;-74
2023/06/27 00:45:22;;;;;;;3.83;2.77;;;;;;;;;;5013539;28;20210;-74
2023/06/27 00:47:47;;;;;;;3.03;2.23;;;;;;;;;;5013648;28;20205;-74
2023/06/27 00:50:12;;;;;;;3.87;2.23;;;;;;;;;;5011052;28;20175;-74
2023/06/27 00:52:38;;;;;;;3.67;2.33;;;;;;;;;;5016909;28;20191;-74
2023/06/27 00:55:04;;;;;;;5.40;2.60;;;;;;;;;;5011391;28;20175;-74
2023/06/27 00:57:29;;;;;;;3.73;2.00;;;;;;;;;;5011905;28;20182;-74
2023/06/27 00:59:55;;;;;;;5.43;2.30;;;;;;;;;;5010357;28;20183;-74
2023/06/27 01:02:23;;;;;;;3.60;2.20;;;;;;;;;;5009618;28;20182;-74
2023/06/27 01:04:49;;;;;;;4.50;2.20;;;;;;;;;;5003038;28;20196;-74
2023/06/27 01:07:18;;;;;;;4.20;2.30;;;;;;;;;;5012238;28;20190;-74
2023/06/27 01:09:48;;;;;;;4.30;2.10;;;;;;;;;;5011465;28;20179;-74
2023/06/27 01:12:18;;;;;;;4.27;2.47;;;;;;;;;;5010028;28;20205;-74
2023/06/27 01:14:45;;;;;;;4.90;2.43;;;;;;;;;;5012560;28;20220;-75
2023/06/27 01:17:10;;;;;;;5.60;2.30;;;;;;;;;;5009048;28;20209;-74
2023/06/27 01:19:37;;;;;;;3.07;2.23;;;;;;;;;;5009071;28;20207;-74
2023/06/27 01:22:08;;;;;;;3.90;2.20;;;;;;;;;;5012329;28;20281;-74
2023/06/27 01:24:36;;;;;;;2.90;2.40;;;;;;;;;;5025514;28;20186;-75
2023/06/27 01:27:02;;;;;;;4.07;2.23;;;;;;;;;;5008830;28;20223;-74
2023/06/27 01:29:29;;;;;;;4.43;2.57;;;;;;;;;;5011176;28;20204;-75
2023/06/27 01:32:12;;;;;;;3.60;2.43;;;;;;;;;;5013572;28;20237;-74
2023/06/27 01:34:44;;;;;;;2.60;2.00;;;;;;;;;;5004596;28;20268;-74
2023/06/27 01:37:17;;;;;;;3.23;2.40;;;;;;;;;;5021373;28;20191;-74
2023/06/27 01:39:48;;;;;;;4.83;2.50;;;;;;;;;;5007192;28;20192;-74
2023/06/27 01:42:34;;;;;;;4.50;2.67;;;;;;;;;;5008613;28;20218;-74
2023/06/27 01:45:00;;;;;;;5.37;2.83;;;;;;;;;;5011017;28;20186;-74
2023/06/27 01:47:25;;;;;;;4.43;2.50;;;;;;;;;;5008872;28;20225;-74
2023/06/27 01:49:50;;;;;;;3.20;2.07;;;;;;;;;;5020476;28;20185;-74
2023/06/27 01:52:15;;;;;;;3.70;2.37;;;;;;;;;;5012691;28;20178;-75
2023/06/27 01:54:42;;;;;;;5.37;2.73;;;;;;;;;;5008076;28;20175;-75
2023/06/27 01:57:07;;;;;;;3.40;2.20;;;;;;;;;;5008933;28;20192;-75
2023/06/27 01:59:32;;;;;;;5.07;2.63;;;;;;;;;;5002878;28;20187;-74
2023/06/27 02:01:57;;;;;;;3.87;2.60;;;;;;;;;;5010301;28;20206;-75
2023/06/27 02:04:23;;;;;;;2.70;2.00;;;;;;;;;;5007980;28;20189;-75
2023/06/27 02:06:48;;;;;;;4.10;2.20;;;;;;;;;;5010172;28;20225;-75
2023/06/27 02:09:13;;;;;;;3.43;2.10;;;;;;;;;;5009261;28;20204;-74
2023/06/27 02:11:38;;;;;;;5.93;2.70;;;;;;;;;;5008124;28;20265;-75
2023/06/27 02:14:04;;;;;;;2.73;2.40;;;;;;;;;;5010344;28;20194;-75
2023/06/27 02:16:29;;;;;;;3.20;2.33;;;;;;;;;;5020592;28;20273;-75
2023/06/27 02:18:54;;;;;;;4.70;2.40;;;;;;;;;;4996264;28;20188;-74
2023/06/27 02:21:19;;;;;;;3.77;2.30;;;;;;;;;;5004210;28;20186;-74
2023/06/27 02:23:45;;;;;;;4.87;2.17;;;;;;;;;;5005641;28;20254;-74
2023/06/27 02:26:10;;;;;;;4.03;2.67;;;;;;;;;;5004677;28;20240;-74
2023/06/27 02:28:35;;;;;;;7.50;2.83;;;;;;;;;;5006634;28;20209;-75
2023/06/27 02:31:14;;;;;;;3.93;2.30;;;;;;;;;;5083424;27;20567;-75
2023/06/27 02:33:39;;;;;;;6.07;3.03;;;;;;;;;;5083213;28;20198;-75
2023/06/27 02:36:05;;;;;;;4.03;2.23;;;;;;;;;;5081968;28;20206;-75
2023/06/27 02:38:30;;;;;;;4.40;2.60;;;;;;;;;;5060255;28;20183;-75
2023/06/27 02:40:56;;;;;;;4.40;2.37;;;;;;;;;;5084291;28;20175;-75
2023/06/27 02:43:21;;;;;;;4.00;2.70;;;;;;;;;;5066296;28;20183;-75
2023/06/27 02:45:46;;;;;;;4.30;1.97;;;;;;;;;;5085606;28;20271;-75
2023/06/27 02:48:11;;;;;;;5.53;2.97;;;;;;;;;;5081875;28;20172;-75
2023/06/27 02:50:36;;;;;;;4.27;2.40;;;;;;;;;;5069016;28;20233;-75
2023/06/27 02:53:02;;;;;;;4.37;2.70;;;;;;;;;;5066941;28;20215;-75
2023/06/27 02:55:27;;;;;;;7.07;2.87;;;;;;;;;;5077743;28;20176;-75
2023/06/27 02:57:52;;;;;;;4.60;2.67;;;;;;;;;;5059949;28;20191;-75
2023/06/27 03:00:18;;;;;;;2.97;2.13;;;;;;;;;;5078831;28;20188;-75
2023/06/27 03:02:43;;;;;;;2.90;2.20;;;;;;;;;;5080315;28;20178;-75
2023/06/27 03:05:08;;;;;;;3.10;2.20;;;;;;;;;;5062999;28;20224;-75
2023/06/27 03:07:33;;;;;;;4.07;2.20;;;;;;;;;;5063157;28;20212;-75
2023/06/27 03:09:59;;;;;;;7.30;2.37;;;;;;;;;;5056227;28;20194;-75
2023/06/27 03:12:24;;;;;;;2.73;2.00;;;;;;;;;;5063013;28;20180;-75
2023/06/27 03:14:49;;;;;;;5.70;2.97;;;;;;;;;;5078348;28;20261;-75
2023/06/27 03:17:14;;;;;;;3.63;2.73;;;;;;;;;;5060069;28;20189;-75
2023/06/27 03:19:39;;;;;;;3.63;2.47;;;;;;;;;;5077789;28;20183;-75
2023/06/27 03:22:05;;;;;;;4.17;2.53;;;;;;;;;;5062475;28;20233;-75
2023/06/27 03:24:33;;;;;;;4.00;2.40;;;;;;;;;;5049470;28;20175;-75
2023/06/27 03:26:58;;;;;;;4.77;2.40;;;;;;;;;;5063372;28;20177;-75
2023/06/27 03:29:24;;;;;;;3.00;2.27;;;;;;;;;;5043163;28;20230;-75
2023/06/27 03:31:49;;;;;;;7.03;2.40;;;;;;;;;;5079147;28;20183;-75
2023/06/27 03:34:14;;;;;;;3.73;2.63;;;;;;;;;;5046619;28;20177;-75
2023/06/27 03:36:39;;;;;;;3.57;2.40;;;;;;;;;;5064168;28;20185;-75
2023/06/27 03:39:05;;;;;;;4.97;2.70;;;;;;;;;;5046355;28;20182;-75
2023/06/27 03:41:30;;;;;;;4.63;2.63;;;;;;;;;;5060930;28;20246;-75
2023/06/27 03:43:56;;;;;;;3.70;2.20;;;;;;;;;;5024166;28;20183;-75
2023/06/27 03:46:21;;;;;;;4.73;2.83;;;;;;;;;;5047226;28;20269;-75
2023/06/27 03:48:47;;;;;;;4.37;2.57;;;;;;;;;;5029827;28;20179;-75
2023/06/27 03:51:12;;;;;;;5.57;2.63;;;;;;;;;;5034309;28;20202;-75
2023/06/27 03:53:37;;;;;;;5.83;2.50;;;;;;;;;;5046105;28;20597;-75
2023/06/27 03:56:03;;;;;;;6.90;3.53;;;;;;;;;;5053483;28;20185;-75
2023/06/27 03:58:28;;;;;;;2.90;2.60;;;;;;;;;;5054461;28;20170;-75
2023/06/27 04:00:53;;;;;;;3.70;2.37;;;;;;;;;;5049833;28;20220;-75
2023/06/27 04:03:19;;;;;;;4.30;2.37;;;;;;;;;;5036180;28;20198;-75
2023/06/27 04:05:44;;;;;;;3.67;2.80;;;;;;;;;;5049183;28;20303;-75
2023/06/27 04:08:09;;;;;;;3.13;2.60;;;;;;;;;;5052275;28;20187;-75
2023/06/27 04:10:35;;;;;;;4.20;2.87;;;;;;;;;;5051001;28;20199;-75
2023/06/27 04:13:00;;;;;;;6.83;2.70;;;;;;;;;;5050448;28;20179;-75
2023/06/27 04:15:25;;;;;;;4.00;2.33;;;;;;;;;;5054976;28;20181;-75
2023/06/27 04:17:50;;;;;;;2.83;2.20;;;;;;;;;;5032629;28;20186;-75
2023/06/27 04:20:15;;;;;;;3.03;2.30;;;;;;;;;;5048803;28;20183;-75
2023/06/27 04:22:41;;;;;;;3.23;2.37;;;;;;;;;;5046575;28;20213;-75
2023/06/27 04:25:10;;;;;;;9.20;2.97;;;;;;;;;;5052538;28;20182;-75
2023/06/27 04:27:35;;;;;;;3.23;2.40;;;;;;;;;;5037179;28;20184;-75
2023/06/27 04:30:01;;;;;;;3.37;2.50;;;;;;;;;;5047891;28;20237;-75
2023/06/27 04:32:26;;;;;;;4.73;2.80;;;;;;;;;;5037011;28;20196;-75
2023/06/27 04:34:51;;;;;;;4.70;2.57;;;;;;;;;;5048105;28;20179;-75
2023/06/27 04:37:18;;;;;;;5.70;2.80;;;;;;;;;;5055115;28;20187;-75
2023/06/27 04:39:43;;;;;;;5.43;2.53;;;;;;;;;;5035266;28;20266;-75
2023/06/27 04:42:09;;;;;;;9.93;3.17;;;;;;;;;;5053956;28;20283;-75
2023/06/27 04:44:35;;;;;;;5.27;2.50;;;;;;;;;;5031378;28;20187;-75
2023/06/27 04:47:00;;;;;;;7.80;2.30;;;;;;;;;;5050860;28;20186;-75
2023/06/27 04:49:25;;;;;;;3.73;2.53;;;;;;;;;;5029765;28;20195;-75
2023/06/27 04:51:50;;;;;;;2.97;2.53;;;;;;;;;;5043879;28;20234;-75
2023/06/27 04:54:16;;;;;;;7.27;2.57;;;;;;;;;;5035672;28;20225;-75
2023/06/27 04:56:41;;;;;;;3.97;2.40;;;;;;;;;;5050312;28;20202;-75
2023/06/27 04:59:06;;;;;;;5.23;2.60;;;;;;;;;;5032548;28;20278;-75
2023/06/27 05:01:32;;;;;;;20.87;4.07;;;;;;;;;;5031110;28;20212;-75
2023/06/27 05:04:04;;;;;;;2.47;2.27;;;;;;;;;;5028962;28;20210;-75
2023/06/27 05:06:29;;;;;;;7.90;2.73;;;;;;;;;;5032597;28;20177;-75
2023/06/27 05:08:54;;;;;;;10.83;3.00;;;;;;;;;;5050120;28;20172;-75
2023/06/27 05:11:19;;;;;;;3.90;2.20;;;;;;;;;;5028056;28;20175;-75
2023/06/27 05:13:45;;;;;;;2.63;2.40;;;;;;;;;;5051633;28;20187;-75
2023/06/27 05:16:10;;;;;;;18.60;3.10;;;;;;;;;;5065065;28;20180;-74
2023/06/27 05:18:35;;;;;;;5.97;3.00;;;;;;;;;;5026917;28;20175;-75
2023/06/27 05:21:00;;;;;;;2.73;2.10;;;;;;;;;;5050382;28;20179;-75
2023/06/27 05:23:25;;;;;;;7.63;2.60;;;;;;;;;;5054114;28;20199;-75
2023/06/27 05:25:51;;;;;;;2.83;2.20;;;;;;;;;;5031937;28;20184;-75
2023/06/27 05:28:16;;;;;;;14.37;4.07;;;;;;;;;;5041859;28;20186;-75
2023/06/27 05:30:41;;;;;;;3.03;2.40;;;;;;;;;;5048964;28;20231;-75
2023/06/27 05:33:07;;;;;;;3.33;2.50;;;;;;;;;;5032298;28;20177;-75
2023/06/27 05:35:32;;;;;;;2.70;2.23;;;;;;;;;;5050626;28;20257;-75
2023/06/27 05:37:58;;;;;;;4.13;2.57;;;;;;;;;;5033593;28;20176;-75
2023/06/27 05:40:23;;;;;;;5.50;2.63;;;;;;;;;;5054210;28;20180;-75
2023/06/27 05:42:48;;;;;;;8.63;2.77;;;;;;;;;;5051466;28;20184;-75
2023/06/27 05:45:13;;;;;;;3.30;2.17;;;;;;;;;;5051423;28;20187;-74
2023/06/27 05:47:39;;;;;;;4.30;2.20;;;;;;;;;;5052732;28;20219;-74
2023/06/27 05:50:05;;;;;;;2.33;2.03;;;;;;;;;;5033400;28;20204;-75
2023/06/27 05:52:30;;;;;;;2.80;2.10;;;;;;;;;;5033146;28;20179;-74
2023/06/27 05:54:55;;;;;;;3.23;2.47;;;;;;;;;;5050358;28;20264;-74
2023/06/27 05:57:22;;;;;;;3.40;2.37;;;;;;;;;;5052058;28;20168;-75
2023/06/27 05:59:47;;;;;;;4.03;2.00;;;;;;;;;;5050624;28;20262;-74
2023/06/27 06:02:12;;;;;;;2.73;2.03;;;;;;;;;;5049273;28;20275;-75
2023/06/27 06:04:37;;;;;;;3.77;2.60;;;;;;;;;;5048155;28;20266;-74
2023/06/27 06:07:03;;;;;;;3.50;2.33;;;;;;;;;;5047637;28;20208;-75
2023/06/27 06:09:29;;;;;;;6.00;2.93;;;;;;;;;;5032348;28;20208;-75
2023/06/27 06:11:55;;;;;;;3.67;2.10;;;;;;;;;;5031276;28;20194;-75
2023/06/27 06:14:20;;;;;;;6.90;2.53;;;;;;;;;;5051627;28;20184;-75
2023/06/27 06:16:45;;;;;;;3.97;2.17;;;;;;;;;;5049272;28;20173;-75
2023/06/27 06:19:11;;;;;;;4.43;2.37;;;;;;;;;;5049292;28;20196;-75
2023/06/27 06:21:37;;;;;;;2.30;2.10;;;;;;;;;;5033298;28;20184;-74
2023/06/27 06:24:02;;;;;;;3.63;2.30;;;;;;;;;;5030086;28;20177;-74
2023/06/27 06:26:27;;;;;;;4.77;2.40;;;;;;;;;;5028996;28;20188;-75
2023/06/27 06:28:52;;;;;;;3.67;2.37;;;;;;;;;;5049352;28;20242;-75
2023/06/27 06:31:19;;;;;;;4.50;2.07;;;;;;;;;;5051229;28;20228;-74
2023/06/27 06:33:45;;;;;;;3.53;2.30;;;;;;;;;;5050104;28;20181;-74
2023/06/27 06:36:10;;;;;;;2.43;1.80;;;;;;;;;;5030925;28;20177;-74
2023/06/27 06:38:35;;;;;;;5.03;2.70;;;;;;;;;;5031459;28;20183;-74
2023/06/27 06:41:01;;;;;;;4.33;2.17;;;;;;;;;;5027994;28;20182;-74
2023/06/27 06:43:26;;;;;;;3.90;2.07;;;;;;;;;;5050285;28;20177;-74
2023/06/27 06:45:52;;;;;;;4.13;1.87;;;;;;;;;;5050110;28;20180;-74
2023/06/27 06:48:19;;;;;;;2.83;1.83;;;;;;;;;;5049539;28;20191;-74
2023/06/27 06:50:44;;;;;;;3.10;2.80;;;;;;;;;;5049083;28;20210;-74
2023/06/27 06:53:09;;;;;;;5.27;2.23;;;;;;;;;;5046800;28;20169;-75
2023/06/27 06:55:34;;;;;;;3.87;2.47;;;;;;;;;;5047819;28;20228;-74
2023/06/27 06:58:00;;;;;;;4.00;2.27;;;;;;;;;;5047386;28;20175;-74
2023/06/27 07:00:25;;;;;;;5.03;2.60;;;;;;;;;;5030762;28;20174;-74
2023/06/27 07:02:50;;;;;;;4.30;2.03;;;;;;;;;;5047197;28;20186;-74
2023/06/27 07:05:16;;;;;;;3.03;2.20;;;;;;;;;;5049666;28;20226;-74
2023/06/27 07:07:41;;;;;;;4.33;2.47;;;;;;;;;;5050542;28;20168;-74
2023/06/27 07:10:06;;;;;;;4.53;2.00;;;;;;;;;;5031148;28;20207;-74
2023/06/27 07:12:32;;;;;;;5.97;2.13;;;;;;;;;;5044902;28;20174;-74
2023/06/27 07:14:57;;;;;;;2.73;2.37;;;;;;;;;;5025541;28;20182;-75
2023/06/27 07:17:22;;;;;;;2.40;2.20;;;;;;;;;;5051848;28;20183;-74
2023/06/27 07:19:47;;;;;;;4.10;2.80;;;;;;;;;;5034165;28;20184;-74
2023/06/27 07:22:13;;;;;;;3.70;2.27;;;;;;;;;;5037981;28;20191;-74
2023/06/27 07:24:38;;;;;;;3.23;2.47;;;;;;;;;;5036715;28;20177;-75
2023/06/27 07:27:03;;;;;;;3.17;2.10;;;;;;;;;;5052417;28;20184;-75
2023/06/27 07:29:28;;;;;;;3.00;2.70;;;;;;;;;;5032062;28;20283;-75
2023/06/27 07:31:53;;;;;;;4.53;2.20;;;;;;;;;;5051608;28;20167;-75
2023/06/27 07:34:19;;;;;;;3.17;2.13;;;;;;;;;;5049119;28;20310;-75
2023/06/27 07:36:44;;;;;;;3.03;2.63;;;;;;;;;;5049564;28;20181;-74
2023/06/27 07:39:10;;;;;;;3.77;2.60;;;;;;;;;;5039008;28;20184;-75
2023/06/27 07:41:35;;;;;;;3.33;2.07;;;;;;;;;;5035781;28;20186;-76
2023/06/27 07:44:00;;;;;;;4.27;2.30;;;;;;;;;;5034511;28;20238;-74
2023/06/27 07:46:26;;;;;;;4.10;2.37;;;;;;;;;;5048932;28;20186;-74
2023/06/27 07:48:51;;;;;;;2.90;2.20;;;;;;;;;;5034616;28;20176;-74
2023/06/27 07:51:16;;;;;;;9.80;3.20;;;;;;;;;;5045794;28;20247;-74
2023/06/27 07:53:41;;;;;;;3.83;2.20;;;;;;;;;;5052040;28;20222;-75
2023/06/27 07:56:07;;;;;;;3.73;2.63;;;;;;;;;;5051926;28;20186;-75
2023/06/27 07:58:33;;;;;;;4.30;2.37;;;;;;;;;;5034999;28;20179;-74
2023/06/27 08:00:58;;;;;;;5.27;3.33;;;;;;;;;;5049529;28;20262;-74
2023/06/27 08:03:24;;;;;;;3.97;2.37;;;;;;;;;;5051347;28;20280;-74
2023/06/27 08:05:49;;;;;;;4.90;2.87;;;;;;;;;;5049889;28;20178;-74
2023/06/27 08:08:15;;;;;;;3.50;3.00;;;;;;;;;;5034514;28;20235;-75
2023/06/27 08:10:41;;;;;;;5.10;3.03;;;;;;;;;;5030564;28;20218;-75
2023/06/27 08:13:06;;;;;;;6.10;2.77;;;;;;;;;;5048577;28;20275;-75
2023/06/27 08:15:31;;;;;;;5.97;3.10;;;;;;;;;;5046572;28;20266;-75
2023/06/27 08:17:57;;;;;;;4.03;2.23;;;;;;;;;;5062005;28;20268;-75
2023/06/27 08:20:22;;;;;;;6.97;3.03;;;;;;;;;;5048784;28;20265;-75
2023/06/27 08:22:47;;;;;;;4.87;2.43;;;;;;;;;;5032845;28;20204;-75
2023/06/27 08:25:12;;;;;;;4.40;2.60;;;;;;;;;;5042541;28;20188;-75
2023/06/27 08:27:38;;;;;;;3.20;2.70;;;;;;;;;;5063083;28;20217;-75
2023/06/27 08:30:03;;;;;;;6.20;2.73;;;;;;;;;;5049594;28;20280;-75
2023/06/27 08:32:28;;;;;;;3.93;2.67;;;;;;;;;;5045847;28;20197;-74
2023/06/27 08:34:53;;;;;;;7.60;2.77;;;;;;;;;;5047506;28;20180;-75
2023/06/27 08:37:21;;;;;;;5.53;2.93;;;;;;;;;;5030690;28;20175;-75
2023/06/27 08:39:52;;;;;;;13.80;3.97;;;;;;;;;;5046003;28;20171;-75
2023/06/27 08:42:18;;;;;;;4.30;3.00;;;;;;;;;;5027945;28;20194;-75
2023/06/27 08:44:43;;;;;;;3.13;2.30;;;;;;;;;;5034610;28;20181;-75
2023/06/27 08:47:09;;;;;;;5.53;2.70;;;;;;;;;;5052795;28;20183;-74
2023/06/27 08:49:35;;;;;;;4.30;2.70;;;;;;;;;;5033616;28;20209;-75
2023/06/27 08:52:01;;;;;;;2.70;2.20;;;;;;;;;;5032446;28;20254;-75
2023/06/27 08:54:37;;;;;;;2.70;2.40;;;;;;;;;;5052326;28;20202;-75
2023/06/27 08:57:03;;;;;;;2.53;2.30;;;;;;;;;;5031272;28;20176;-75
2023/06/27 08:59:31;;;;;;;3.20;2.13;;;;;;;;;;5050506;28;20259;-75
2023/06/27 09:01:57;;;;;;;3.77;2.40;;;;;;;;;;5032546;28;20183;-75
2023/06/27 09:04:22;;;;;;;5.67;2.63;;;;;;;;;;5050536;28;20191;-75
2023/06/27 09:06:48;;;;;;;3.53;2.50;;;;;;;;;;5033895;28;20189;-74
2023/06/27 09:09:15;;;;;;;5.23;2.67;;;;;;;;;;5062168;28;20264;-75
2023/06/27 09:11:41;;;;;;;3.97;2.60;;;;;;;;;;5032829;28;20176;-75
2023/06/27 09:14:07;;;;;;;3.20;2.50;;;;;;;;;;5034938;28;20256;-74
2023/06/27 09:16:32;;;;;;;3.30;2.37;;;;;;;;;;5051435;28;20177;-74
2023/06/27 09:18:57;;;;;;;5.03;2.57;;;;;;;;;;5051910;28;20180;-74
2023/06/27 09:21:23;;;;;;;5.73;2.53;;;;;;;;;;5051829;28;20176;-74
2023/06/27 09:23:49;;;;;;;3.47;2.77;;;;;;;;;;5033819;28;20212;-74
2023/06/27 09:26:14;;;;;;;3.00;2.70;;;;;;;;;;5032846;28;20245;-75
2023/06/27 09:28:47;;;;;;;4.07;2.70;;;;;;;;;;5048445;28;20296;-74
2023/06/27 09:31:15;;;;;;;4.47;2.63;;;;;;;;;;5050352;28;20221;-75
2023/06/27 09:33:42;;;;;;;4.47;2.60;;;;;;;;;;5029146;28;20203;-74
2023/06/27 09:36:08;;;;;;;3.03;2.20;;;;;;;;;;5034389;28;20191;-75
2023/06/27 09:38:33;;;;;;;4.07;2.73;;;;;;;;;;5032588;28;20171;-75
2023/06/27 09:41:05;;;;;;;4.30;2.50;;;;;;;;;;5031426;28;20240;-74
2023/06/27 09:43:37;;;;;;;5.73;2.97;;;;;;;;;;5046649;28;20204;-74
2023/06/27 09:46:04;;;;;;;6.23;2.50;;;;;;;;;;5030178;28;20182;-74
2023/06/27 09:48:32;;;;;;;8.03;2.47;;;;;;;;;;5036402;28;20185;-74
2023/06/27 09:50:58;;;;;;;3.10;2.63;;;;;;;;;;5047200;28;20209;-74
2023/06/27 09:53:23;;;;;;;4.37;2.33;;;;;;;;;;5032422;28;20215;-75
2023/06/27 09:55:48;;;;;;;3.73;2.43;;;;;;;;;;5031919;28;20185;-75
2023/06/27 09:58:13;;;;;;;2.33;2.13;;;;;;;;;;5049320;28;20185;-74
2023/06/27 10:00:39;;;;;;;3.70;2.77;;;;;;;;;;5031290;28;20181;-74
2023/06/27 10:03:08;;;;;;;3.23;2.10;;;;;;;;;;5033034;28;20182;-72
2023/06/27 10:05:33;;;;;;;4.43;2.87;;;;;;;;;;5029656;28;20172;-75
2023/06/27 10:07:58;;;;;;;3.00;2.17;;;;;;;;;;5051131;28;20188;-75
2023/06/27 10:10:27;;;;;;;12.40;3.13;;;;;;;;;;5049638;28;20188;-74
2023/06/27 10:12:52;;;;;;;2.47;2.17;;;;;;;;;;5049433;28;20176;-75
2023/06/27 10:15:17;;;;;;;5.10;2.90;;;;;;;;;;5043849;28;20177;-74
2023/06/27 10:17:44;;;;;;;4.00;2.43;;;;;;;;;;5028151;28;20173;-74
2023/06/27 10:20:11;;;;;;;5.57;2.20;;;;;;;;;;5032978;28;20181;-74
2023/06/27 10:22:38;;;;;;;5.90;3.10;;;;;;;;;;5029895;28;20281;-75
2023/06/27 10:25:04;;;;;;;5.10;2.83;;;;;;;;;;5025299;28;20180;-74
2023/06/27 10:27:34;;;;;;;2.60;2.40;;;;;;;;;;5051155;28;20239;-74
2023/06/27 10:30:23;;;;;;;6.20;3.27;;;;;;;;;;5036351;28;20256;-74
2023/06/27 10:32:49;;;;;;;4.87;2.63;;;;;;;;;;5034151;28;20192;-74
2023/06/27 10:35:26;;;;;;;3.60;2.40;;;;;;;;;;5030338;28;20171;-74
2023/06/27 10:38:08;;;;;;;3.37;3.07;;;;;;;;;;5030213;28;20174;-74
2023/06/27 10:41:09;;;;;;;2.70;2.40;;;;;;;;;;5029291;28;20191;-74
2023/06/27 10:43:38;;;;;;;3.23;2.37;;;;;;;;;;4970295;28;20188;-74
2023/06/27 10:46:06;;;;;;;5.37;2.83;;;;;;;;;;4985467;28;20199;-74
2023/06/27 10:48:35;;;;;;;4.13;2.37;;;;;;;;;;4984127;28;20176;-75
2023/06/27 10:51:06;;;;;;;3.73;2.90;;;;;;;;;;4982724;28;20243;-74
2023/06/27 10:53:31;;;;;;;8.73;2.80;;;;;;;;;;4976535;28;20207;-74
2023/06/27 10:55:57;;;;;;;4.83;2.70;;;;;;;;;;4975651;28;20183;-74
2023/06/27 10:58:26;;;;;;;4.67;3.10;;;;;;;;;;4988711;28;20213;-74
2023/06/27 11:00:52;;;;;;;5.03;2.70;;;;;;;;;;4991515;28;20191;-74
2023/06/27 11:03:19;;;;;;;5.00;3.10;;;;;;;;;;4997560;28;20186;-74
2023/06/27 11:05:51;;;;;;;8.23;2.80;;;;;;;;;;4988338;28;20298;-74
2023/06/27 11:08:20;;;;;;;5.60;3.40;;;;;;;;;;4991779;28;20183;-74
2023/06/27 11:11:05;;;;;;;4.13;2.90;;;;;;;;;;4982465;28;20247;-75
2023/06/27 11:13:33;;;;;;;4.77;2.77;;;;;;;;;;4998828;28;20255;-74
2023/06/27 11:15:58;;;;;;;5.60;2.80;;;;;;;;;;4992370;28;20171;-74
2023/06/27 11:18:27;;;;;;;10.67;3.23;;;;;;;;;;5015382;28;20197;-74
2023/06/27 11:20:53;;;;;;;6.40;3.13;;;;;;;;;;5032318;28;20186;-74
2023/06/27 11:23:20;;;;;;;3.17;2.63;;;;;;;;;;5029076;28;20276;-74
2023/06/27 11:25:45;;;;;;;3.30;2.80;;;;;;;;;;5034039;28;20311;-74
2023/06/27 11:28:12;;;;;;;3.87;2.73;;;;;;;;;;5033256;28;20279;-74
2023/06/27 11:30:37;;;;;;;2.87;2.33;;;;;;;;;;5050001;28;20247;-74
2023/06/27 11:33:03;;;;;;;4.70;3.07;;;;;;;;;;5052261;28;20193;-74
2023/06/27 11:35:30;;;;;;;4.85;2.80;;;;;;;;;;5034028;28;20300;-74
2023/06/27 11:37:55;;;;;;;3.13;2.57;;;;;;;;;;5042680;28;20288;-74
2023/06/27 11:40:21;;;;;;;5.38;3.00;;;;;;;;;;5053321;28;20269;-74
2023/06/27 11:42:46;;;;;;;3.80;2.20;;;;;;;;;;5049788;28;20178;-74
2023/06/27 11:45:12;;;;;;;4.68;2.90;;;;;;;;;;5029257;28;20174;-74
2023/06/27 11:47:38;;;;;;;3.90;2.92;;;;;;;;;;5034724;28;20178;-74
2023/06/27 11:50:12;;;;;;;4.53;2.92;;;;;;;;;;5035384;28;20189;-74
2023/06/27 11:52:38;;;;;;;7.25;3.88;;;;;;;;;;5035230;28;20183;-74
2023/06/27 11:55:05;;;;;;;3.90;3.08;;;;;;;;;;5052872;28;20174;-74
2023/06/27 11:57:44;;;;;;;8.02;3.03;;;;;;;;;;5051750;28;20174;-74
2023/06/27 12:00:17;;;;;;;5.90;3.00;;;;;;;;;;5053106;28;20272;-74
2023/06/27 12:02:45;;;;;;;3.83;3.10;;;;;;;;;;5048254;28;20186;-74
2023/06/27 12:05:15;;;;;;;7.97;3.45;;;;;;;;;;5033589;28;20189;-74
2023/06/27 12:07:40;;;;;;;3.95;2.75;;;;;;;;;;5049588;28;20238;-74
2023/06/27 12:10:06;;;;;;;5.68;2.92;;;;;;;;;;5049526;28;20289;-74
2023/06/27 12:12:38;;;;;;;5.57;2.53;;;;;;;;;;5029291;28;20182;-74
2023/06/27 12:15:14;;;;;;;4.93;2.90;;;;;;;;;;5051055;28;20186;-75
2023/06/27 12:17:53;;;;;;;4.03;2.90;;;;;;;;;;5052004;28;20177;-74
2023/06/27 12:20:18;;;;;;;4.28;3.10;;;;;;;;;;5047861;28;20174;-74
2023/06/27 12:22:44;;;;;;;4.72;3.38;;;;;;;;;;5034029;28;20204;-74
2023/06/27 12:25:09;;;;;;;4.47;3.30;;;;;;;;;;5035704;28;20185;-74
2023/06/27 12:27:35;;;;;;;6.55;3.28;;;;;;;;;;5049119;28;20403;-74
2023/06/27 12:30:00;;;;;;;4.35;2.75;;;;;;;;;;5048970;28;20309;-74
2023/06/27 12:32:25;;;;;;;3.60;3.13;;;;;;;;;;5051965;28;20250;-74
2023/06/27 12:34:51;;;;;;;3.20;2.83;;;;;;;;;;5051413;28;20209;-74
2023/06/27 12:37:16;;;;;;;6.93;3.72;;;;;;;;;;5050073;28;20174;-74
2023/06/27 12:39:41;;;;;;;3.50;2.70;;;;;;;;;;5051677;28;20280;-74
2023/06/27 12:42:06;;;;;;;7.35;3.30;;;;;;;;;;5054649;28;20182;-75
2023/06/27 12:44:31;;;;;;;26.77;4.72;;;;;;;;;;5036149;28;20273;-74
2023/06/27 12:46:57;;;;;;;4.85;2.72;;;;;;;;;;5033731;28;20209;-74
2023/06/27 12:49:22;;;;;;;7.03;2.75;;;;;;;;;;5034377;28;20189;-74
2023/06/27 12:51:47;;;;;;;3.58;2.97;;;;;;;;;;5023993;28;20175;-74
2023/06/27 12:54:12;;;;;;;3.33;2.60;;;;;;;;;;5049868;28;20178;-74
2023/06/27 12:56:37;;;;;;;3.80;2.42;;;;;;;;;;5049780;28;20178;-74
2023/06/27 12:59:03;;;;;;;5.32;2.60;;;;;;;;;;5030841;28;20187;-75
2023/06/27 13:01:35;;;;;;;2.95;2.40;;;;;;;;;;5033100;28;20197;-74
2023/06/27 13:04:00;;;;;;;15.68;5.35;;;;;;;;;;5030918;28;20182;-74
2023/06/27 13:06:25;;;;;;;8.88;3.72;;;;;;;;;;5048559;28;20240;-75
2023/06/27 13:08:51;;;;;;;45.80;6.72;;;;;;;;;;5033598;28;20225;-74
2023/06/27 13:11:16;;;;;;;2.88;2.60;;;;;;;;;;5034258;28;20237;-75
2023/06/27 14:32:31;;;;;;;3.10;2.45;;;;;;;;;;4953317;28;20286;-71
2023/06/27 14:34:56;;;;;;;2.78;2.20;;;;;;;;;;4950266;28;20267;-71
2023/06/27 16:30:20;;;;;;;3.65;2.50;;;;;;;;;;4957219;28;20275;-72
2023/06/27 16:32:45;;;;;;;2.42;2.22;;;;;;;;;;4964171;28;20185;-72
2023/06/27 16:35:10;;;;;;;3.85;2.85;;;;;;;;;;4949190;28;20188;-73
2023/06/27 16:37:35;;;;;;;7.63;2.42;;;;;;;;;;4974014;28;20181;-72
2023/06/27 16:40:01;;;;;;;4.07;2.40;;;;;;;;;;4964270;28;20208;-72
2023/06/27 16:42:27;;;;;;;4.18;2.40;;;;;;;;;;4961750;28;20178;-73
2023/06/27 16:44:52;;;;;;;3.28;2.60;;;;;;;;;;4960430;28;20204;-72
2023/06/27 16:47:17;;;;;;;3.65;2.50;;;;;;;;;;4973149;28;20235;-72
2023/06/27 16:49:42;;;;;;;5.70;2.78;;;;;;;;;;4982763;28;20271;-73
2023/06/27 16:52:08;;;;;;;2.67;2.30;;;;;;;;;;4962049;28;20172;-72
2023/06/27 16:54:33;;;;;;;5.60;2.83;;;;;;;;;;4969634;28;20204;-72
2023/06/27 16:56:58;;;;;;;3.08;2.53;;;;;;;;;;4967754;28;20196;-72
2023/06/27 16:59:23;;;;;;;4.07;2.47;;;;;;;;;;4972143;28;20188;-73
2023/06/27 17:01:50;;;;;;;2.60;2.40;;;;;;;;;;4968574;28;20185;-73
2023/06/27 17:04:16;;;;;;;4.05;2.75;;;;;;;;;;4962633;28;20196;-73
2023/06/27 17:06:41;;;;;;;3.90;2.47;;;;;;;;;;4969254;28;20177;-73
2023/06/27 17:09:06;;;;;;;4.30;2.40;;;;;;;;;;4969703;28;20184;-72
2023/06/27 17:11:32;;;;;;;2.70;2.50;;;;;;;;;;4959786;28;20204;-73
2023/06/27 17:13:59;;;;;;;3.72;3.10;;;;;;;;;;4961086;28;20276;-72
2023/06/27 17:16:24;;;;;;;4.13;2.55;;;;;;;;;;4959400;28;20184;-72
2023/06/27 17:18:49;;;;;;;6.68;3.45;;;;;;;;;;4971252;28;20185;-73
2023/06/27 17:21:14;;;;;;;4.13;2.70;;;;;;;;;;4964247;28;20212;-73
2023/06/27 17:23:39;;;;;;;4.93;2.45;;;;;;;;;;4968313;28;20200;-73
2023/06/27 17:26:05;;;;;;;5.90;2.90;;;;;;;;;;4970587;28;20197;-73
2023/06/27 17:28:30;;;;;;;3.97;2.45;;;;;;;;;;4976234;28;20234;-73
2023/06/27 17:30:55;;;;;;;3.85;2.90;;;;;;;;;;5003055;28;20211;-73
2023/06/27 17:33:20;;;;;;;3.08;2.30;;;;;;;;;;4989118;28;20208;-73
2023/06/27 17:35:46;;;;;;;3.70;2.40;;;;;;;;;;4993519;28;20173;-73
2023/06/27 17:38:11;;;;;;;3.22;2.65;;;;;;;;;;4990049;28;20192;-73
2023/06/27 17:40:37;;;;;;;2.70;2.10;;;;;;;;;;4986886;28;20267;-73
2023/06/27 17:43:02;;;;;;;4.55;2.08;;;;;;;;;;4978464;28;20176;-73
2023/06/27 17:45:27;;;;;;;3.25;2.38;;;;;;;;;;4979536;28;20199;-73
2023/06/27 17:47:52;;;;;;;4.65;2.63;;;;;;;;;;4992749;28;20188;-73
2023/06/27 17:50:17;;;;;;;4.35;2.40;;;;;;;;;;4972014;28;20203;-72